createdAt,value
2018-12-29T00:01:18.907Z,7.90
2018-12-29T00:03:48.060Z,7.80
2018-12-29T00:06:17.344Z,7.90
2018-12-29T00:08:46.648Z,7.80
2018-12-29T00:11:15.902Z,7.90
2018-12-29T00:13:45.689Z,7.80
2018-12-29T00:16:14.857Z,7.80
2018-12-29T00:18:43.879Z,7.80
2018-12-29T00:21:12.952Z,7.80
2018-12-29T00:23:42.130Z,7.70
2018-12-29T00:26:11.548Z,7.70
2018-12-29T00:28:40.740Z,7.80
2018-12-29T00:31:09.727Z,7.80
2018-12-29T00:33:38.766Z,7.80
2018-12-29T00:36:07.882Z,7.80
2018-12-29T00:38:36.971Z,7.80
2018-12-29T00:41:06.155Z,7.80
2018-12-29T00:43:35.168Z,7.80
2018-12-29T00:46:04.219Z,7.90
2018-12-29T00:48:33.240Z,7.90
2018-12-29T00:51:02.259Z,7.90
2018-12-29T00:53:31.395Z,7.90
2018-12-29T00:56:00.430Z,7.80
2018-12-29T00:58:29.299Z,7.70
2018-12-29T01:00:58.202Z,7.70
2018-12-29T01:03:27.158Z,7.70
2018-12-29T01:05:56.114Z,7.80
2018-12-29T01:08:25.156Z,7.80
2018-12-29T01:10:54.142Z,7.90
2018-12-29T01:13:23.069Z,7.90
2018-12-29T01:15:52.063Z,7.90
2018-12-29T01:18:21.053Z,7.90
2018-12-29T01:20:50.418Z,7.80
2018-12-29T01:23:19.652Z,7.90
2018-12-29T01:25:48.652Z,7.80
2018-12-29T01:28:17.666Z,7.80
2018-12-29T01:30:46.773Z,7.80
2018-12-29T01:33:15.670Z,7.80
2018-12-29T01:35:44.699Z,7.80
2018-12-29T01:38:13.725Z,7.80
2018-12-29T01:40:42.705Z,7.80
2018-12-29T01:43:11.804Z,7.80
2018-12-29T01:45:40.884Z,7.80
2018-12-29T01:48:09.850Z,7.80
2018-12-29T01:50:38.818Z,7.80
2018-12-29T01:53:07.772Z,7.80
2018-12-29T01:55:36.699Z,7.80
2018-12-29T01:58:05.621Z,7.80
2018-12-29T02:00:35.038Z,7.80
2018-12-29T02:03:04.177Z,7.80
2018-12-29T02:05:33.376Z,7.90
2018-12-29T02:08:02.363Z,7.90
2018-12-29T02:10:31.507Z,8.00
2018-12-29T02:13:00.352Z,7.90
2018-12-29T02:15:29.205Z,8.00
2018-12-29T02:17:58.217Z,7.90
2018-12-29T02:20:27.554Z,8.00
2018-12-29T02:22:56.487Z,8.00
2018-12-29T02:25:25.419Z,8.00
2018-12-29T02:27:54.379Z,8.00
2018-12-29T02:30:23.575Z,7.90
2018-12-29T02:32:52.630Z,8.00
2018-12-29T02:35:21.679Z,8.00
2018-12-29T02:37:50.864Z,8.00
2018-12-29T02:40:19.853Z,8.00
2018-12-29T02:42:48.985Z,8.00
2018-12-29T02:45:17.982Z,8.10
2018-12-29T02:47:46.946Z,8.10
2018-12-29T02:50:15.912Z,8.10
2018-12-29T02:52:44.807Z,8.10
2018-12-29T02:55:13.755Z,8.10
2018-12-29T02:57:42.793Z,8.10
2018-12-29T03:00:11.921Z,8.10
2018-12-29T03:02:40.795Z,8.10
2018-12-29T03:05:09.750Z,8.10
2018-12-29T03:07:38.699Z,8.10
2018-12-29T03:10:07.733Z,8.20
2018-12-29T03:12:36.711Z,8.30
2018-12-29T03:15:05.651Z,8.30
2018-12-29T03:17:34.577Z,8.30
2018-12-29T03:20:03.722Z,8.30
2018-12-29T03:22:32.600Z,8.40
2018-12-29T03:25:01.652Z,8.40
2018-12-29T03:27:30.526Z,8.30
2018-12-29T03:29:59.568Z,8.30
2018-12-29T03:32:28.451Z,8.30
2018-12-29T03:34:57.268Z,8.40
2018-12-29T03:37:26.121Z,8.30
2018-12-29T03:39:55.045Z,8.30
2018-12-29T03:42:23.931Z,8.30
2018-12-29T03:44:53.559Z,8.30
2018-12-29T03:47:22.465Z,8.20
2018-12-29T03:49:51.397Z,8.20
2018-12-29T03:52:20.299Z,8.20
2018-12-29T03:54:49.293Z,8.10
2018-12-29T03:57:18.122Z,8.10
2018-12-29T03:59:46.919Z,8.00
2018-12-29T04:02:15.694Z,8.00
2018-12-29T04:04:44.540Z,8.00
2018-12-29T04:07:13.475Z,7.90
2018-12-29T04:09:42.290Z,7.90
2018-12-29T04:12:17.211Z,7.90
2018-12-29T04:14:46.250Z,7.90
2018-12-29T04:17:15.122Z,8.00
2018-12-29T04:19:43.999Z,8.00
2018-12-29T04:22:12.827Z,8.00
2018-12-29T04:24:41.671Z,8.00
2018-12-29T04:27:10.547Z,7.90
2018-12-29T04:29:39.339Z,8.00
2018-12-29T04:32:08.207Z,8.00
2018-12-29T04:34:37.120Z,7.90
2018-12-29T04:37:06.072Z,7.90
2018-12-29T04:39:34.903Z,7.90
2018-12-29T04:42:03.845Z,8.00
2018-12-29T04:44:32.690Z,7.90
2018-12-29T04:47:01.650Z,7.90
2018-12-29T04:49:30.512Z,7.90
2018-12-29T04:51:59.448Z,7.90
2018-12-29T04:54:28.392Z,7.80
2018-12-29T04:56:57.334Z,7.80
2018-12-29T04:59:26.533Z,7.80
2018-12-29T05:01:55.446Z,7.80
2018-12-29T05:04:24.380Z,7.80
2018-12-29T05:06:53.280Z,7.90
2018-12-29T05:09:22.176Z,7.90
2018-12-29T05:11:51.033Z,7.80
2018-12-29T05:14:19.943Z,7.90
2018-12-29T05:16:48.788Z,7.90
2018-12-29T05:19:17.652Z,7.90
2018-12-29T05:21:46.648Z,7.90
2018-12-29T05:24:15.639Z,7.90
2018-12-29T05:26:44.511Z,7.90
2018-12-29T05:29:13.433Z,7.90
2018-12-29T05:31:42.460Z,8.00
2018-12-29T05:34:11.406Z,7.90
2018-12-29T05:36:40.390Z,7.90
2018-12-29T05:39:09.306Z,7.90
2018-12-29T05:41:38.252Z,8.00
2018-12-29T05:44:07.152Z,8.00
2018-12-29T05:46:35.975Z,8.00
2018-12-29T05:49:04.855Z,8.00
2018-12-29T05:51:33.684Z,8.00
2018-12-29T05:54:02.512Z,8.00
2018-12-29T05:56:31.430Z,8.00
2018-12-29T05:59:00.362Z,8.00
2018-12-29T06:01:29.305Z,8.00
2018-12-29T06:03:58.177Z,8.00
2018-12-29T06:06:27.128Z,8.10
2018-12-29T06:08:56.013Z,8.10
2018-12-29T06:11:24.834Z,8.10
2018-12-29T06:13:53.644Z,8.10
2018-12-29T06:16:27.606Z,8.00
2018-12-29T06:18:53.075Z,8.00
2018-12-29T06:21:21.854Z,8.00
2018-12-29T06:23:50.702Z,8.00
2018-12-29T06:26:19.499Z,8.00
2018-12-29T06:28:48.339Z,8.10
2018-12-29T06:31:17.194Z,8.10
2018-12-29T06:33:46.040Z,8.20
2018-12-29T06:36:14.975Z,8.20
2018-12-29T06:38:43.788Z,8.30
2018-12-29T06:41:12.614Z,8.20
2018-12-29T06:43:41.439Z,8.30
2018-12-29T06:46:10.375Z,8.30
2018-12-29T06:48:39.215Z,8.30
2018-12-29T06:51:08.023Z,8.30
2018-12-29T06:53:36.811Z,8.30
2018-12-29T06:56:05.614Z,8.30
2018-12-29T06:58:34.470Z,8.20
2018-12-29T07:01:03.259Z,8.20
2018-12-29T07:03:32.134Z,8.20
2018-12-29T07:06:00.944Z,8.20
2018-12-29T07:08:29.776Z,8.20
2018-12-29T07:10:58.638Z,8.30
2018-12-29T07:13:27.644Z,8.30
2018-12-29T07:15:56.442Z,8.30
2018-12-29T07:18:25.267Z,8.30
2018-12-29T07:20:54.090Z,8.30
2018-12-29T07:23:22.964Z,8.20
2018-12-29T07:25:51.776Z,8.20
2018-12-29T07:28:20.646Z,8.30
2018-12-29T07:30:49.447Z,8.30
2018-12-29T07:33:18.363Z,8.20
2018-12-29T07:35:47.139Z,8.30
2018-12-29T07:38:15.959Z,8.30
2018-12-29T07:40:44.832Z,8.20
2018-12-29T07:43:13.656Z,8.30
2018-12-29T07:45:42.471Z,8.30
2018-12-29T07:48:11.362Z,8.30
2018-12-29T07:50:40.339Z,8.30
2018-12-29T07:53:09.168Z,8.30
2018-12-29T07:55:37.984Z,8.30
2018-12-29T07:58:06.822Z,8.40
2018-12-29T08:00:35.675Z,8.30
2018-12-29T08:03:04.602Z,8.40
2018-12-29T08:05:33.463Z,8.40
2018-12-29T08:08:02.288Z,8.40
2018-12-29T08:10:31.084Z,8.50
2018-12-29T08:12:59.927Z,8.50
2018-12-29T08:15:28.766Z,8.40
2018-12-29T08:17:57.589Z,8.40
2018-12-29T08:20:26.456Z,8.40
2018-12-29T08:22:55.355Z,8.40
2018-12-29T08:25:24.162Z,8.40
2018-12-29T08:27:52.965Z,8.40
2018-12-29T08:30:21.812Z,8.40
2018-12-29T08:32:50.644Z,8.40
2018-12-29T08:35:19.522Z,8.50
2018-12-29T08:37:48.430Z,8.60
2018-12-29T08:40:17.315Z,8.60
2018-12-29T08:42:46.153Z,8.60
2018-12-29T08:45:15.024Z,8.60
2018-12-29T08:47:44.916Z,8.60
2018-12-29T08:50:13.742Z,8.60
2018-12-29T08:52:42.672Z,8.70
2018-12-29T08:55:11.586Z,8.60
2018-12-29T08:57:40.480Z,8.60
2018-12-29T09:00:09.484Z,8.60
2018-12-29T09:02:38.302Z,8.60
2018-12-29T09:05:07.331Z,8.60
2018-12-29T09:07:36.122Z,8.60
2018-12-29T09:10:05.875Z,8.60
2018-12-29T09:12:34.801Z,8.60
2018-12-29T09:15:03.781Z,8.70
2018-12-29T09:17:32.655Z,8.80
2018-12-29T09:20:01.602Z,8.80
2018-12-29T09:22:30.416Z,8.70
2018-12-29T09:24:59.475Z,8.70
2018-12-29T09:27:28.542Z,8.70
2018-12-29T09:29:57.333Z,8.60
2018-12-29T09:32:26.223Z,8.70
2018-12-29T09:34:55.511Z,8.70
2018-12-29T09:37:24.452Z,8.70
2018-12-29T09:39:53.342Z,8.70
2018-12-29T09:42:22.339Z,8.70
2018-12-29T09:44:51.404Z,8.80
2018-12-29T09:47:20.323Z,8.80
2018-12-29T09:49:49.235Z,8.80
2018-12-29T09:52:18.193Z,8.90
2018-12-29T09:54:47.132Z,8.90
2018-12-29T09:57:16.075Z,9.00
2018-12-29T09:59:45.754Z,9.00
2018-12-29T10:02:14.851Z,9.10
2018-12-29T10:04:44.407Z,9.00
2018-12-29T10:07:13.933Z,9.10
2018-12-29T10:09:43.214Z,9.00
2018-12-29T10:12:12.133Z,9.00
2018-12-29T10:14:41.056Z,9.00
2018-12-29T10:17:10.176Z,9.00
2018-12-29T10:19:39.117Z,9.00
2018-12-29T10:22:27.281Z,9.00
2018-12-29T10:24:56.207Z,9.00
2018-12-29T10:27:25.271Z,9.00
2018-12-29T10:29:54.327Z,9.00
2018-12-29T10:32:23.343Z,9.00
2018-12-29T10:34:52.555Z,9.00
2018-12-29T10:37:21.622Z,9.00
2018-12-29T10:39:50.468Z,9.00
2018-12-29T10:42:19.362Z,9.10
2018-12-29T10:44:48.168Z,9.10
2018-12-29T10:47:17.084Z,9.10
2018-12-29T10:49:45.931Z,9.10
2018-12-29T10:52:14.833Z,9.10
2018-12-29T10:54:43.712Z,9.10
2018-12-29T10:57:12.656Z,9.10
2018-12-29T10:59:41.497Z,9.10
2018-12-29T11:02:10.298Z,9.10
2018-12-29T11:04:39.112Z,9.10
2018-12-29T11:07:08.150Z,9.10
2018-12-29T11:09:37.043Z,9.20
2018-12-29T11:12:05.958Z,9.10
2018-12-29T11:14:34.836Z,9.00
2018-12-29T11:17:03.871Z,9.00
2018-12-29T11:19:32.874Z,9.00
2018-12-29T11:22:01.814Z,9.10
2018-12-29T11:24:30.775Z,9.10
2018-12-29T11:26:59.811Z,9.10
2018-12-29T11:29:28.705Z,9.10
2018-12-29T11:32:00.064Z,9.10
2018-12-29T11:34:28.944Z,9.00
2018-12-29T11:36:57.764Z,8.90
2018-12-29T11:39:26.570Z,9.00
2018-12-29T11:41:55.392Z,9.00
2018-12-29T11:44:24.224Z,9.00
2018-12-29T11:46:53.260Z,8.90
2018-12-29T11:49:22.270Z,8.90
2018-12-29T11:51:51.173Z,8.90
2018-12-29T11:54:20.029Z,8.90
2018-12-29T11:56:49.036Z,9.00
2018-12-29T11:59:17.935Z,9.00
2018-12-29T12:01:46.843Z,9.00
2018-12-29T12:04:15.715Z,9.00
2018-12-29T12:06:44.594Z,9.00
2018-12-29T12:09:13.751Z,9.00
2018-12-29T12:11:42.770Z,8.90
2018-12-29T12:14:11.741Z,8.90
2018-12-29T12:16:40.604Z,9.00
2018-12-29T12:19:09.576Z,8.90
2018-12-29T12:21:38.879Z,9.00
2018-12-29T12:24:07.891Z,8.90
2018-12-29T12:26:36.898Z,8.90
2018-12-29T12:29:07.945Z,8.90
2018-12-29T12:31:39.832Z,8.90
2018-12-29T12:34:08.728Z,9.00
2018-12-29T12:36:38.041Z,9.10
2018-12-29T12:39:07.995Z,9.10
2018-12-29T12:41:37.524Z,9.00
2018-12-29T12:44:06.805Z,9.00
2018-12-29T12:46:36.116Z,8.90
2018-12-29T12:49:05.591Z,8.90
2018-12-29T12:51:34.609Z,9.00
2018-12-29T12:54:04.212Z,9.00
2018-12-29T12:56:33.248Z,9.00
2018-12-29T12:59:02.262Z,9.00
2018-12-29T13:01:31.599Z,9.00
2018-12-29T13:04:00.822Z,8.90
2018-12-29T13:06:29.816Z,9.00
2018-12-29T13:08:59.073Z,9.00
2018-12-29T13:11:28.267Z,8.90
2018-12-29T13:13:57.290Z,8.90
2018-12-29T13:16:45.670Z,8.90
2018-12-29T13:19:15.087Z,8.80
2018-12-29T13:21:44.100Z,8.90
2018-12-29T13:24:13.173Z,8.80
2018-12-29T13:26:42.460Z,8.90
2018-12-29T13:29:11.572Z,8.80
2018-12-29T13:31:40.906Z,8.70
2018-12-29T13:34:10.013Z,8.70
2018-12-29T13:36:38.942Z,8.70
2018-12-29T13:39:08.533Z,8.70
2018-12-29T13:41:37.600Z,8.70
2018-12-29T13:44:11.212Z,8.70
2018-12-29T13:46:40.354Z,8.80
2018-12-29T13:49:09.573Z,8.70
2018-12-29T13:51:39.684Z,8.80
2018-12-29T14:00:40.272Z,8.80
2018-12-29T14:03:10.209Z,8.80
2018-12-29T14:05:39.156Z,8.70
2018-12-29T14:08:08.146Z,8.80
2018-12-29T14:10:37.121Z,8.70
2018-12-29T14:13:06.352Z,8.70
2018-12-29T14:15:57.897Z,8.60
2018-12-29T14:18:28.327Z,8.60
2018-12-29T14:20:57.779Z,8.60
2018-12-29T14:23:30.159Z,8.60
2018-12-29T14:25:59.262Z,8.60
2018-12-29T14:28:28.360Z,8.50
2018-12-29T14:30:57.826Z,8.50
2018-12-29T14:33:27.121Z,8.50
2018-12-29T14:35:58.615Z,8.50
2018-12-29T14:38:32.065Z,8.50
2018-12-29T14:41:03.488Z,8.40
2018-12-29T14:43:34.018Z,8.40
2018-12-29T14:46:03.698Z,8.50
2018-12-29T14:48:36.085Z,8.40
2018-12-29T14:51:03.627Z,8.40
2018-12-29T14:53:39.797Z,8.40
2018-12-29T14:56:16.465Z,8.40
2018-12-29T14:58:44.051Z,8.40
2018-12-29T15:04:06.505Z,8.30
2018-12-29T15:06:35.711Z,8.30
2018-12-29T15:09:28.675Z,8.20
2018-12-29T15:11:59.325Z,8.20
2018-12-29T15:14:28.666Z,8.20
2018-12-29T15:16:57.782Z,8.10
2018-12-29T15:19:26.968Z,8.20
2018-12-29T15:21:58.806Z,8.10
2018-12-29T15:24:27.731Z,8.10
2018-12-29T15:30:04.251Z,8.00
2018-12-29T15:32:33.340Z,8.00
2018-12-29T15:35:02.814Z,8.00
2018-12-29T15:37:33.265Z,7.90
2018-12-29T15:40:05.109Z,7.90
2018-12-29T15:42:35.008Z,7.90
2018-12-29T15:45:04.588Z,7.90
2018-12-29T15:47:55.609Z,7.90
2018-12-29T15:50:24.972Z,7.90
2018-12-29T15:52:54.621Z,7.90
2018-12-29T15:55:23.901Z,7.90
2018-12-29T15:57:53.094Z,7.80
2018-12-29T16:00:22.738Z,7.80
2018-12-29T16:02:52.253Z,7.80
2018-12-29T16:05:23.675Z,7.70
2018-12-29T16:07:56.090Z,7.80
2018-12-29T16:10:25.274Z,7.80
2018-12-29T16:13:03.301Z,7.70
2018-12-29T16:15:32.610Z,7.70
2018-12-29T16:18:02.086Z,7.70
2018-12-29T16:20:31.492Z,7.70
2018-12-29T16:23:00.511Z,7.70
2018-12-29T16:25:29.556Z,7.70
2018-12-29T16:27:58.595Z,7.70
2018-12-29T16:30:27.931Z,7.70
2018-12-29T16:32:57.240Z,7.80
2018-12-29T16:35:26.366Z,7.70
2018-12-29T16:38:19.644Z,7.70
2018-12-29T16:40:48.828Z,7.70
2018-12-29T16:43:18.188Z,7.70
2018-12-29T16:45:48.314Z,7.70
2018-12-29T16:48:17.417Z,7.70
2018-12-29T16:50:46.651Z,7.70
2018-12-29T16:53:15.648Z,7.70
2018-12-29T16:55:44.903Z,7.70
2018-12-29T16:58:13.906Z,7.70
2018-12-29T17:00:42.920Z,7.70
2018-12-29T17:03:12.028Z,7.70
2018-12-29T17:05:41.103Z,7.80
2018-12-29T17:08:09.996Z,7.80
2018-12-29T17:10:39.050Z,7.80
2018-12-29T17:13:08.087Z,7.90
2018-12-29T17:15:37.253Z,7.90
2018-12-29T17:18:06.579Z,7.90
2018-12-29T17:20:35.593Z,7.90
2018-12-29T17:23:04.604Z,7.90
2018-12-29T17:25:33.859Z,7.90
2018-12-29T17:28:02.855Z,7.90
2018-12-29T17:30:51.449Z,8.00
2018-12-29T17:33:20.398Z,8.00
2018-12-29T17:35:49.666Z,8.10
2018-12-29T17:38:19.128Z,8.20
2018-12-29T17:41:23.053Z,8.20
2018-12-29T17:44:19.365Z,8.30
2018-12-29T17:46:51.437Z,8.30
2018-12-29T17:49:22.766Z,8.30
2018-12-29T17:51:51.208Z,8.30
2018-12-29T17:54:20.872Z,8.30
2018-12-29T17:56:50.285Z,8.30
2018-12-29T17:59:19.559Z,8.30
2018-12-29T18:01:48.892Z,8.20
2018-12-29T18:04:17.936Z,8.20
2018-12-29T18:06:46.861Z,8.30
2018-12-29T18:09:16.981Z,8.30
2018-12-29T18:11:45.987Z,8.30
2018-12-29T18:14:14.918Z,8.30
2018-12-29T18:16:43.897Z,8.30
2018-12-29T18:19:13.199Z,8.20
2018-12-29T18:21:42.254Z,8.30
2018-12-29T18:24:11.484Z,8.40
2018-12-29T18:26:42.452Z,8.50
2018-12-29T18:29:11.675Z,8.60
2018-12-29T18:31:41.409Z,8.60
2018-12-29T18:34:13.611Z,8.60
2018-12-29T18:36:42.655Z,8.50
2018-12-29T18:39:11.833Z,8.50
2018-12-29T18:41:41.988Z,8.40
2018-12-29T18:44:12.429Z,8.40
2018-12-29T18:46:41.724Z,8.40
2018-12-29T18:49:10.679Z,8.40
2018-12-29T18:51:39.716Z,8.40
2018-12-29T18:54:08.708Z,8.40
2018-12-29T18:56:45.377Z,8.40
2018-12-29T18:59:12.366Z,8.40
2018-12-29T19:01:41.617Z,8.40
2018-12-29T19:04:12.289Z,8.40
2018-12-29T19:07:03.801Z,8.40
2018-12-29T19:09:37.163Z,8.40
2018-12-29T19:12:11.355Z,8.40
2018-12-29T19:15:00.312Z,8.40
2018-12-29T19:17:29.623Z,8.40
2018-12-29T19:19:58.883Z,8.50
2018-12-29T19:22:27.913Z,8.50
2018-12-29T19:24:57.331Z,8.50
2018-12-29T19:27:26.526Z,8.50
2018-12-29T19:29:55.621Z,8.50
2018-12-29T19:32:24.753Z,8.50
2018-12-29T19:34:54.141Z,8.50
2018-12-29T19:37:23.467Z,8.50
2018-12-29T19:39:52.494Z,8.50
2018-12-29T19:42:25.349Z,8.50
2018-12-29T19:44:54.383Z,8.60
2018-12-29T19:47:24.033Z,8.60
2018-12-29T19:49:54.009Z,8.70
2018-12-29T19:52:23.154Z,8.60
2018-12-29T19:55:11.407Z,8.70
2018-12-29T19:57:40.303Z,8.70
2018-12-29T20:00:10.802Z,8.70
2018-12-29T20:02:40.614Z,8.80
2018-12-29T20:05:09.873Z,8.70
2018-12-29T20:07:38.913Z,8.60
2018-12-29T20:10:08.280Z,8.60
2018-12-29T20:12:37.400Z,8.60
2018-12-29T20:15:07.043Z,8.60
2018-12-29T20:20:24.950Z,8.60
2018-12-29T20:22:56.851Z,8.60
2018-12-29T20:25:30.402Z,8.60
2018-12-29T20:28:01.269Z,8.60
2018-12-29T20:30:31.032Z,8.60
2018-12-29T20:33:00.910Z,8.50
2018-12-29T20:35:49.336Z,8.50
2018-12-29T20:38:20.273Z,8.40
2018-12-29T20:40:52.109Z,8.40
2018-12-29T20:43:21.705Z,8.40
2018-12-29T20:45:53.866Z,8.40
2018-12-29T20:48:27.498Z,8.30
2018-12-29T20:51:13.148Z,8.30
2018-12-29T20:53:44.891Z,8.30
2018-12-29T20:56:16.305Z,8.30
2018-12-29T20:59:04.569Z,8.30
2018-12-29T21:01:33.664Z,8.20
2018-12-29T21:04:03.218Z,8.30
2018-12-29T21:06:51.536Z,8.30
2018-12-29T21:09:20.549Z,8.30
2018-12-29T21:11:49.637Z,8.20
2018-12-29T21:14:21.781Z,8.20
2018-12-29T21:16:50.836Z,8.20
2018-12-29T21:19:19.972Z,8.20
2018-12-29T21:22:08.275Z,8.20
2018-12-29T21:24:56.804Z,8.20
2018-12-29T21:27:27.891Z,8.20
2018-12-29T21:29:56.988Z,8.20
2018-12-29T21:32:26.571Z,8.30
2018-12-29T21:34:59.903Z,8.30
2018-12-29T21:37:30.176Z,8.30
2018-12-29T21:40:02.010Z,8.30
2018-12-29T21:42:31.315Z,8.20
2018-12-29T21:45:02.021Z,8.30
2018-12-29T21:47:34.094Z,8.30
2018-12-29T21:50:03.151Z,8.30
2018-12-29T21:52:32.428Z,8.30
2018-12-29T21:55:02.049Z,8.30
2018-12-29T21:57:31.394Z,8.30
2018-12-29T22:00:04.204Z,8.30
2018-12-29T22:02:33.247Z,8.30
2018-12-29T22:05:05.116Z,8.30
2018-12-29T22:07:34.328Z,8.20
2018-12-29T22:10:03.493Z,8.10
2018-12-29T22:12:32.614Z,8.10
2018-12-29T22:15:02.925Z,8.20
2018-12-29T22:17:31.932Z,8.20
2018-12-29T22:20:00.978Z,8.30
2018-12-29T22:22:33.224Z,8.20
2018-12-29T22:25:03.148Z,8.30
2018-12-29T22:27:36.397Z,8.30
2018-12-29T22:30:08.041Z,8.30
2018-12-29T22:32:38.293Z,8.30
2018-12-29T22:35:07.401Z,8.30
2018-12-29T22:37:36.642Z,8.30
2018-12-29T22:40:08.372Z,8.30
2018-12-29T22:42:37.828Z,8.20
2018-12-29T22:45:07.503Z,8.20
2018-12-29T22:47:36.783Z,8.30
2018-12-29T22:50:06.734Z,8.30
2018-12-29T22:52:36.187Z,8.30
2018-12-29T22:55:07.329Z,8.30
2018-12-29T22:57:42.237Z,8.30
2018-12-29T23:00:26.398Z,8.30
2018-12-29T23:03:00.065Z,8.30
2018-12-29T23:05:31.598Z,8.30
2018-12-29T23:08:04.583Z,8.40
2018-12-29T23:10:33.651Z,8.40
2018-12-29T23:13:05.641Z,8.30
2018-12-29T23:15:34.910Z,8.30
2018-12-29T23:18:03.931Z,8.40
2018-12-29T23:20:33.402Z,8.40
2018-12-29T23:23:02.485Z,8.30
2018-12-29T23:25:31.917Z,8.30
2018-12-29T23:28:01.172Z,8.40
2018-12-29T23:30:49.309Z,8.40
2018-12-29T23:33:20.617Z,8.40
2018-12-29T23:35:51.206Z,8.40
2018-12-29T23:38:20.228Z,8.40
2018-12-29T23:40:49.480Z,8.40
2018-12-29T23:43:19.131Z,8.40
2018-12-29T23:45:48.412Z,8.40
2018-12-29T23:48:17.432Z,8.40
2018-12-29T23:50:47.723Z,8.50
2018-12-29T23:53:16.734Z,8.40
2018-12-29T23:55:48.032Z,8.40
2018-12-29T23:58:17.053Z,8.40
